Strona główna
METAR-TAF:

METAR-TAF

Lotnisko :

Tomaszów Mazowiecki, Polska

Szerokość geograficzna: 51-35-04N, Długość geograficzna: 020-05-52E, wysokość: 174 m

METAR: brakujący

czas: 09:29 (07:29 UTC)

Prognoza

Raport powstał 2 godziny i 29 minut temu, godzina 05:00 UTC
Prognoza ważna od 23 godzina 06 UTC do 23 godzina 18 UTC
Wiatr 3 kt z kierunków zmiennych
Widzialność 10 km lub więcej
Przerywane chmury na wysokości 4000 ft

TAF: EPTM 230500Z 2306/2318 VRB03KT 9999 BKN040

Obserwacja i prognoza pogody dla ponad 4000 lotnisk (raport METAR i TAF).

Dostępne stacje oznaczono żółtymi i czerwonymi punktami na mapie.

Najedź kursorem aby zobaczyć nazwę stacji.

Kliknij aby zobaczyć obserwacje i prognozy pogody.

Aby zmienić mapę: kliknij na zielony przycisk z czarnym krzyżykiem, aby powiększyć; na zielony przycisk z myślnikiem, aby pomniejszyć; na zielone strzałki, aby przejść do map sąsiednich.


METAR-TAF: